Time;durP1;ratioP1;P1;durP2;ratioP2;P2;SDS_P1;SDS_P2;PMS_P1;PMS_P2;Temp;Humidity;BMP_temperature;BMP_pressure;BME280_temperature;BME280_humidity;BME280_pressure;Samples;Min_cycle;Max_cycle;Signal;HPM_P1;HPM_P2
2023/08/28 00:00:46;;;;;;;2.88;2.30;;;;;;;17.58;100.00;97853.25;3149446;23;20010;-95
2023/08/28 00:02:22;;;;;;;2.60;2.10;;;;;;;17.58;100.00;97853.25;3172210;23;20030;-96
2023/08/28 00:03:42;;;;;;;5.53;2.00;;;;;;;17.59;100.00;97860.25;3129963;23;20023;-95
2023/08/28 00:04:58;;;;;;;4.60;2.20;;;;;;;17.63;100.00;97867.06;3127421;23;20433;-96
2023/08/28 00:06:15;;;;;;;5.00;2.60;;;;;;;17.59;100.00;97873.47;3148245;23;20078;-96
2023/08/28 00:07:31;;;;;;;4.07;2.00;;;;;;;17.58;100.00;97873.59;3132077;23;20023;-96
2023/08/28 00:08:53;;;;;;;3.65;1.98;;;;;;;17.27;100.00;97876.44;3142287;23;20086;-96
2023/08/28 00:10:09;;;;;;;4.63;1.98;;;;;;;17.31;100.00;97880.56;3152578;23;20039;-96
2023/08/28 00:11:27;;;;;;;2.63;2.22;;;;;;;17.39;100.00;97879.25;3124781;23;20023;-96
2023/08/28 00:12:44;;;;;;;3.28;2.00;;;;;;;17.35;100.00;97873.28;3131934;23;20022;-95
2023/08/28 00:14:02;;;;;;;3.45;2.10;;;;;;;17.38;100.00;97875.72;3163898;23;20030;-95
2023/08/28 00:15:21;;;;;;;8.40;2.40;;;;;;;17.38;100.00;97866.97;3174901;23;20022;-96
2023/08/28 00:16:43;;;;;;;5.95;2.35;;;;;;;17.46;100.00;97870.81;3158784;23;20042;-96
2023/08/28 00:18:04;;;;;;;2.88;2.20;;;;;;;17.49;100.00;97864.47;3137445;23;20022;-96
2023/08/28 00:19:26;;;;;;;4.55;2.25;;;;;;;17.57;100.00;97870.09;3143938;23;20085;-95
2023/08/28 00:20:45;;;;;;;3.90;2.20;;;;;;;17.58;100.00;97869.13;3136205;23;20026;-95
2023/08/28 00:22:05;;;;;;;2.92;2.05;;;;;;;17.60;100.00;97867.25;3130240;23;20791;-96
2023/08/28 00:23:23;;;;;;;6.60;2.22;;;;;;;17.59;100.00;97870.81;3142733;23;20022;-95
2023/08/28 00:24:42;;;;;;;12.45;2.25;;;;;;;17.60;100.00;97875.19;3166873;23;20018;-96
2023/08/28 00:26:01;;;;;;;3.45;2.08;;;;;;;17.63;100.00;97882.94;3159768;23;20050;-95
2023/08/28 00:27:27;;;;;;;6.65;2.40;;;;;;;17.59;100.00;97885.88;3168227;23;20046;-94
2023/08/28 00:28:45;;;;;;;6.15;2.10;;;;;;;17.60;100.00;97890.22;3145131;23;20026;-95
2023/08/28 00:30:05;;;;;;;87.95;4.68;;;;;;;17.44;100.00;97893.88;3138237;23;20018;-95
2023/08/28 00:31:26;;;;;;;57.45;4.53;;;;;;;17.47;100.00;97898.13;3159314;23;20029;-96
2023/08/28 00:32:45;;;;;;;90.75;5.95;;;;;;;17.47;100.00;97896.31;3146657;23;20018;-96
2023/08/28 00:34:07;;;;;;;29.52;3.40;;;;;;;17.41;100.00;97898.50;3145453;23;20019;-96
2023/08/28 00:35:28;;;;;;;4.25;2.50;;;;;;;17.52;100.00;97890.72;3146698;23;20082;-95
2023/08/28 00:36:53;;;;;;;3.03;2.25;;;;;;;17.60;100.00;97885.78;3137435;23;20066;-96
2023/08/28 00:38:16;;;;;;;5.68;2.53;;;;;;;17.55;100.00;97890.53;3133710;23;20023;-94
2023/08/28 00:39:34;;;;;;;2.95;2.22;;;;;;;17.42;100.00;97884.34;3130098;23;20548;-94
2023/08/28 00:40:51;;;;;;;3.55;2.45;;;;;;;17.44;100.00;97885.06;3128762;23;20023;-95
2023/08/28 00:42:12;;;;;;;4.95;2.40;;;;;;;17.43;100.00;97884.25;3143567;23;20030;-94
2023/08/28 00:43:29;;;;;;;3.20;2.40;;;;;;;17.34;100.00;97874.25;3166035;23;20033;-94
2023/08/28 00:44:48;;;;;;;3.20;2.58;;;;;;;17.39;100.00;97866.88;3158600;23;20075;-95
2023/08/28 00:46:22;;;;;;;3.00;2.30;;;;;;;17.42;100.00;97871.97;3170246;23;20057;-94
2023/08/28 00:47:49;;;;;;;2.78;2.33;;;;;;;17.48;100.00;97871.53;3131653;23;20047;-94
2023/08/28 00:49:11;;;;;;;4.63;2.30;;;;;;;17.45;100.00;97870.88;3136730;23;20041;-94
2023/08/28 00:50:29;;;;;;;5.07;2.40;;;;;;;17.40;100.00;97878.28;3167820;23;20014;-95
2023/08/28 00:51:50;;;;;;;4.30;2.20;;;;;;;17.48;100.00;97874.19;3145641;23;20019;-95
2023/08/28 00:53:11;;;;;;;6.70;2.17;;;;;;;17.45;100.00;97873.53;3143717;23;20026;-94
2023/08/28 00:54:28;;;;;;;4.03;2.13;;;;;;;17.45;100.00;97878.84;3164190;23;20538;-94
2023/08/28 00:55:44;;;;;;;4.18;2.33;;;;;;;17.42;100.00;97873.75;3174345;23;20018;-95
2023/08/28 00:57:03;;;;;;;2.55;1.90;;;;;;;17.48;100.00;97868.91;3157394;23;20032;-95
2023/08/28 00:58:21;;;;;;;2.80;2.00;;;;;;;17.54;100.00;97875.59;3143100;23;20031;-94
2023/08/28 00:59:43;;;;;;;5.82;2.13;;;;;;;17.51;100.00;97871.34;3157935;23;20028;-94
2023/08/28 01:01:00;;;;;;;4.53;2.13;;;;;;;17.48;100.00;97871.53;3173401;23;20076;-94
2023/08/28 01:02:17;;;;;;;3.55;2.17;;;;;;;17.50;100.00;97868.81;3154707;23;20126;-95
2023/08/28 01:03:33;;;;;;;4.13;2.03;;;;;;;17.50;100.00;97868.81;3129598;23;20086;-96
2023/08/28 01:04:51;;;;;;;5.75;2.40;;;;;;;17.50;100.00;97874.09;3130577;23;20046;-95
2023/08/28 01:06:30;;;;;;;3.28;2.10;;;;;;;17.51;100.00;97870.50;3133381;23;20511;-95
2023/08/28 01:08:03;;;;;;;5.68;1.92;;;;;;;17.48;100.00;97870.72;3149177;23;20025;-95
2023/08/28 01:09:32;;;;;;;3.42;2.17;;;;;;;17.48;100.00;97868.91;3133971;23;20042;-95
2023/08/28 01:11:17;;;;;;;1.88;1.70;;;;;;;17.45;100.00;97866.47;3141747;23;20014;-95
2023/08/28 01:12:50;;;;;;;3.40;1.90;;;;;;;17.51;100.00;97862.56;3152355;23;20085;-95
2023/08/28 01:14:15;;;;;;;5.10;1.98;;;;;;;17.17;100.00;97860.31;3145284;23;20027;-95
2023/08/28 01:15:33;;;;;;;3.17;1.90;;;;;;;17.36;100.00;97856.47;3150003;23;20018;-95
2023/08/28 01:16:52;;;;;;;2.60;1.95;;;;;;;17.47;100.00;97858.44;3142838;23;20015;-96
2023/08/28 01:18:24;;;;;;;2.70;1.88;;;;;;;17.36;100.00;97854.69;3139460;23;20414;-96
2023/08/28 01:19:46;;;;;;;2.42;1.90;;;;;;;17.35;100.00;97846.84;3158649;23;20037;-96
2023/08/28 01:21:03;;;;;;;6.13;2.13;;;;;;;17.30;100.00;97843.66;3138711;23;20019;-96
2023/08/28 01:22:31;;;;;;;3.15;2.17;;;;;;;17.16;100.00;97842.75;3118165;23;20023;-96
2023/08/28 01:23:55;;;;;;;4.15;2.00;;;;;;;16.92;100.00;97839.88;3116233;23;20030;-96
2023/08/28 01:25:12;;;;;;;4.15;2.70;;;;;;;16.75;100.00;97843.56;3149123;23;20018;-96
2023/08/28 01:26:28;;;;;;;5.30;2.42;;;;;;;16.76;100.00;97840.84;3163815;23;20117;-96
2023/08/28 01:27:44;;;;;;;2.72;2.25;;;;;;;17.00;100.00;97837.59;3158442;23;20221;-94
2023/08/28 01:29:01;;;;;;;3.15;2.40;;;;;;;16.95;100.00;97823.81;3140244;23;20022;-96
2023/08/28 01:30:17;;;;;;;3.28;2.38;;;;;;;16.89;100.00;97826.81;3141501;23;20026;-96
2023/08/28 01:31:32;;;;;;;3.78;2.42;;;;;;;16.86;100.00;97830.53;3139464;23;20027;-94
2023/08/28 01:32:48;;;;;;;7.35;3.67;;;;;;;17.11;100.00;97828.13;3154640;23;20022;-93
2023/08/28 01:34:04;;;;;;;4.68;2.60;;;;;;;17.08;100.00;97824.75;3149604;23;20022;-95
2023/08/28 01:35:27;;;;;;;4.43;2.78;;;;;;;17.02;100.00;97821.63;3127630;23;20015;-95
2023/08/28 01:36:48;;;;;;;3.67;2.47;;;;;;;16.95;100.00;97827.28;3135990;23;20017;-94
2023/08/28 01:38:16;;;;;;;4.82;2.50;;;;;;;17.02;100.00;97825.13;3144298;23;20026;-95
2023/08/28 01:39:41;;;;;;;4.63;2.45;;;;;;;17.06;100.00;97816.06;3141338;23;20022;-96
2023/08/28 01:41:06;;;;;;;7.78;2.58;;;;;;;17.07;100.00;97817.75;3143286;23;20026;-94
2023/08/28 01:42:23;;;;;;;3.72;2.50;;;;;;;17.11;100.00;97815.72;3145163;23;20049;-96
2023/08/28 01:43:43;;;;;;;2.47;2.03;;;;;;;17.13;100.00;97818.28;3143240;23;20824;-95
2023/08/28 01:45:01;;;;;;;6.22;2.53;;;;;;;17.06;100.00;97820.50;3153664;23;20041;-94
2023/08/28 01:46:19;;;;;;;3.58;2.40;;;;;;;17.12;100.00;97824.53;3153643;23;20066;-96
2023/08/28 01:47:35;;;;;;;5.00;2.50;;;;;;;17.13;100.00;97807.72;3147646;23;20073;-94
2023/08/28 01:48:54;;;;;;;2.72;1.88;;;;;;;17.02;100.00;97811.06;3148341;23;20022;-95
2023/08/28 01:50:11;;;;;;;2.47;2.00;;;;;;;16.92;100.00;97808.97;3144628;23;20026;-95
2023/08/28 01:51:27;;;;;;;3.38;2.58;;;;;;;17.01;100.00;97804.09;3160671;23;20022;-96
2023/08/28 01:52:44;;;;;;;5.53;2.28;;;;;;;17.10;100.00;97808.75;3153368;23;20070;-96
2023/08/28 01:54:02;;;;;;;3.00;2.15;;;;;;;17.01;100.00;97806.72;3144438;23;20047;-95
2023/08/28 01:55:45;;;;;;;3.80;2.30;;;;;;;16.85;100.00;97804.19;3160076;23;20018;-93
2023/08/28 01:57:01;;;;;;;3.17;2.30;;;;;;;17.02;100.00;97808.41;3153421;23;20448;-94
2023/08/28 01:58:17;;;;;;;4.40;2.33;;;;;;;17.01;100.00;97810.19;3142840;23;20029;-94
2023/08/28 01:59:33;;;;;;;2.67;2.03;;;;;;;17.05;100.00;97813.50;3129842;23;20023;-95
2023/08/28 02:00:49;;;;;;;2.65;2.10;;;;;;;17.17;100.00;97822.44;3149983;23;20010;-95
2023/08/28 02:02:04;;;;;;;3.58;2.25;;;;;;;17.14;100.00;97820.84;3137359;23;20030;-95
2023/08/28 02:03:20;;;;;;;4.03;2.10;;;;;;;16.90;100.00;97826.72;3146417;23;20033;-94
2023/08/28 02:04:36;;;;;;;5.05;2.50;;;;;;;16.81;100.00;97824.66;3164892;23;20045;-94
2023/08/28 02:05:51;;;;;;;3.47;2.30;;;;;;;16.86;100.00;97829.66;3158077;23;20643;-94
2023/08/28 02:07:07;;;;;;;7.30;3.00;;;;;;;16.86;100.00;97827.88;3150046;23;20026;-94
2023/08/28 02:08:23;;;;;;;3.50;2.33;;;;;;;16.69;100.00;97828.09;3140442;23;20023;-94
2023/08/28 02:09:38;;;;;;;6.75;2.50;;;;;;;16.61;100.00;97825.91;3140494;23;20082;-94
2023/08/28 02:10:54;;;;;;;3.50;2.30;;;;;;;16.62;100.00;97833.75;3156266;23;20034;-95
2023/08/28 02:12:10;;;;;;;3.53;2.20;;;;;;;16.85;100.00;97830.63;3146697;23;20018;-94
2023/08/28 02:13:26;;;;;;;3.97;2.35;;;;;;;16.82;100.00;97838.75;3119197;23;20121;-94
2023/08/28 02:14:42;;;;;;;4.05;2.60;;;;;;;16.84;100.00;97845.66;3133341;23;20029;-94
2023/08/28 02:15:59;;;;;;;3.40;2.50;;;;;;;16.84;100.00;97840.34;3160703;23;20022;-94
2023/08/28 02:17:16;;;;;;;4.30;2.83;;;;;;;16.92;100.00;97838.06;3163319;23;20026;-94
2023/08/28 02:18:32;;;;;;;3.28;2.40;;;;;;;16.95;100.00;97844.94;3156220;23;20019;-94
2023/08/28 02:19:49;;;;;;;2.78;2.40;;;;;;;16.95;100.00;97839.66;3161931;23;20022;-95
2023/08/28 02:21:09;;;;;;;3.92;2.33;;;;;;;16.95;100.00;97839.66;3170809;23;20082;-95
2023/08/28 02:22:25;;;;;;;3.25;2.63;;;;;;;17.00;100.00;97834.94;3153603;23;20246;-94
2023/08/28 02:23:41;;;;;;;4.60;2.60;;;;;;;16.88;100.00;97839.22;3158863;23;20022;-94
2023/08/28 02:24:58;;;;;;;3.67;2.50;;;;;;;16.71;100.00;97834.16;3164938;23;20462;-94
2023/08/28 02:26:14;;;;;;;4.43;2.30;;;;;;;16.61;100.00;97833.84;3150062;23;20105;-93
2023/08/28 02:27:29;;;;;;;4.35;2.63;;;;;;;16.64;100.00;97834.50;3149627;23;20054;-94
2023/08/28 02:28:45;;;;;;;4.32;2.28;;;;;;;16.79;100.00;97835.34;3140497;23;20586;-94
2023/08/28 02:30:01;;;;;;;5.00;2.45;;;;;;;16.72;100.00;97838.50;3155731;23;20025;-94
2023/08/28 02:31:16;;;;;;;4.18;2.67;;;;;;;16.89;100.00;97840.91;3160252;23;20022;-95
2023/08/28 02:32:32;;;;;;;4.03;2.72;;;;;;;16.89;100.00;97837.41;3153352;23;20054;-94
2023/08/28 02:33:48;;;;;;;5.35;2.42;;;;;;;16.84;100.00;97847.44;3146329;23;20085;-94
2023/08/28 02:35:04;;;;;;;3.17;2.25;;;;;;;16.83;100.00;97843.09;3145272;23;20018;-95
2023/08/28 02:36:20;;;;;;;2.42;2.22;;;;;;;16.80;100.00;97852.91;3148662;23;20536;-94
2023/08/28 02:37:36;;;;;;;3.88;2.50;;;;;;;16.89;100.00;97845.31;3130941;23;20042;-94
2023/08/28 02:38:52;;;;;;;5.25;2.50;;;;;;;16.97;100.00;97843.06;3147006;23;20030;-96
2023/08/28 02:40:11;;;;;;;4.25;2.60;;;;;;;16.95;100.00;97850.25;3131112;23;20026;-95
2023/08/28 02:41:26;;;;;;;6.32;2.60;;;;;;;16.94;100.00;97851.19;3135338;23;20404;-94
2023/08/28 02:42:42;;;;;;;5.85;2.33;;;;;;;16.89;100.00;97850.63;3143807;23;20019;-95
2023/08/28 02:43:58;;;;;;;3.33;2.80;;;;;;;16.88;100.00;97852.44;3143126;23;20045;-94
2023/08/28 02:45:14;;;;;;;3.95;2.55;;;;;;;16.94;100.00;97851.19;3153731;23;20025;-95
2023/08/28 02:46:29;;;;;;;7.82;2.95;;;;;;;16.93;100.00;97854.78;3152545;23;20030;-95
2023/08/28 02:47:45;;;;;;;3.58;2.40;;;;;;;16.89;100.00;97861.19;3143971;23;20022;-95
2023/08/28 02:49:01;;;;;;;3.20;2.53;;;;;;;16.98;100.00;97860.63;3127701;23;20018;-95
2023/08/28 02:50:17;;;;;;;3.97;2.13;;;;;;;17.10;100.00;97861.66;3135292;23;20038;-95
2023/08/28 02:51:33;;;;;;;3.67;2.30;;;;;;;17.12;100.00;97864.22;3128033;23;20019;-96
2023/08/28 02:52:48;;;;;;;9.35;2.60;;;;;;;17.08;100.00;97867.06;3136143;23;20019;-95
2023/08/28 02:54:06;;;;;;;3.17;2.28;;;;;;;17.10;100.00;97868.75;3145219;23;20018;-96
2023/08/28 02:55:22;;;;;;;4.22;2.35;;;;;;;17.05;100.00;97866.41;3129633;23;20483;-94
2023/08/28 02:56:38;;;;;;;3.25;2.35;;;;;;;17.06;100.00;97861.03;3138794;23;20038;-95
2023/08/28 02:57:54;;;;;;;4.75;2.47;;;;;;;17.08;100.00;97861.75;3130727;23;20023;-95
2023/08/28 02:59:11;;;;;;;5.03;2.30;;;;;;;17.04;100.00;97867.34;3135791;23;20025;-96
2023/08/28 03:00:27;;;;;;;3.30;2.13;;;;;;;17.07;100.00;97864.50;3143627;23;20482;-94
2023/08/28 03:01:42;;;;;;;4.50;2.38;;;;;;;17.03;100.00;97863.84;3134225;23;20023;-95
2023/08/28 03:02:58;;;;;;;5.70;2.60;;;;;;;16.92;100.00;97863.66;3150876;23;20029;-95
2023/08/28 03:04:14;;;;;;;3.15;2.50;;;;;;;16.80;100.00;97870.56;3152118;23;20018;-95
2023/08/28 03:05:31;;;;;;;3.45;2.53;;;;;;;16.69;100.00;97871.25;3159998;23;20045;-95
2023/08/28 03:06:47;;;;;;;5.10;2.50;;;;;;;16.80;100.00;97868.78;3152448;23;20022;-95
2023/08/28 03:08:03;;;;;;;3.45;2.63;;;;;;;16.98;100.00;97865.91;3146610;23;20018;-94
2023/08/28 03:09:20;;;;;;;9.00;3.22;;;;;;;17.02;100.00;97870.06;3154376;23;20054;-95
2023/08/28 03:10:38;;;;;;;3.53;2.60;;;;;;;16.95;100.00;97879.31;3162361;23;20017;-95
2023/08/28 03:11:54;;;;;;;7.85;3.13;;;;;;;16.97;100.00;97869.50;3155840;23;20072;-95
2023/08/28 03:13:12;;;;;;;6.63;3.33;;;;;;;17.04;100.00;97877.91;3145972;23;20022;-96
2023/08/28 03:14:29;;;;;;;4.70;3.03;;;;;;;17.01;100.00;97873.66;3158312;23;20046;-95
2023/08/28 03:15:46;;;;;;;5.22;2.72;;;;;;;17.00;100.00;97869.31;3143670;23;20023;-96
2023/08/28 03:17:03;;;;;;;5.78;2.83;;;;;;;17.01;100.00;97871.03;3150038;23;20030;-95
2023/08/28 03:18:22;;;;;;;4.57;3.00;;;;;;;16.93;100.00;97871.47;3167047;23;20048;-95
2023/08/28 03:19:42;;;;;;;5.68;2.75;;;;;;;16.85;100.00;97876.41;3144255;23;20033;-95
2023/08/28 03:21:02;;;;;;;3.97;2.72;;;;;;;16.92;100.00;97876.88;3121257;23;20023;-95
2023/08/28 03:22:19;;;;;;;4.07;2.67;;;;;;;17.04;100.00;97877.91;3120075;23;20183;-96
2023/08/28 03:23:37;;;;;;;5.32;2.95;;;;;;;17.13;100.00;97880.00;3140675;23;20026;-96
2023/08/28 03:24:56;;;;;;;3.55;2.65;;;;;;;17.14;100.00;97873.75;3143667;23;20045;-95
2023/08/28 03:26:14;;;;;;;5.03;3.22;;;;;;;17.13;100.00;97880.00;3157241;23;20022;-95
2023/08/28 03:27:31;;;;;;;6.57;2.95;;;;;;;17.14;100.00;97880.81;3142249;23;20095;-95
2023/08/28 03:28:53;;;;;;;5.53;2.75;;;;;;;17.17;100.00;97883.25;3157653;23;20030;-95
2023/08/28 03:30:19;;;;;;;7.65;2.85;;;;;;;17.05;100.00;97888.41;3175379;23;20657;-95
2023/08/28 03:31:34;;;;;;;3.58;2.50;;;;;;;16.94;100.00;97888.22;3157020;23;20037;-95
2023/08/28 03:32:52;;;;;;;5.88;2.63;;;;;;;17.00;100.00;97890.47;3149357;23;20042;-95
2023/08/28 03:34:10;;;;;;;6.68;3.00;;;;;;;17.05;100.00;97884.91;3134273;23;20037;-95
2023/08/28 03:35:29;;;;;;;46.05;4.07;;;;;;;17.12;100.00;97888.00;3140930;23;20038;-95
2023/08/28 03:36:46;;;;;;;6.97;2.67;;;;;;;17.13;100.00;97895.00;3148704;23;20042;-96
2023/08/28 03:38:02;;;;;;;12.32;3.90;;;;;;;17.15;100.00;97887.81;3162543;23;20022;-95
2023/08/28 03:39:19;;;;;;;6.70;3.20;;;;;;;17.18;100.00;97890.25;3140407;23;20019;-94
2023/08/28 03:40:38;;;;;;;4.90;2.90;;;;;;;17.19;100.00;97890.16;3153155;23;20025;-95
2023/08/28 03:41:54;;;;;;;4.00;2.75;;;;;;;17.19;100.00;97891.97;3170757;23;20045;-95
2023/08/28 03:43:10;;;;;;;5.13;2.85;;;;;;;17.14;100.00;97889.63;3154503;23;20130;-95
2023/08/28 03:44:26;;;;;;;2.97;2.60;;;;;;;17.15;100.00;97896.59;3145243;23;20030;-94
2023/08/28 03:45:42;;;;;;;3.95;2.88;;;;;;;17.07;100.00;97896.22;3130848;23;20055;-95
2023/08/28 03:46:58;;;;;;;5.18;2.63;;;;;;;17.15;100.00;97903.69;3135823;23;20022;-95
2023/08/28 03:48:15;;;;;;;4.72;2.47;;;;;;;17.03;100.00;97898.22;3146018;23;20018;-96
2023/08/28 03:49:31;;;;;;;4.88;2.80;;;;;;;16.93;100.00;97889.16;3162409;23;20022;-95
2023/08/28 03:50:49;;;;;;;3.08;2.58;;;;;;;17.00;100.00;97894.94;3156527;23;20018;-96
2023/08/28 03:52:05;;;;;;;3.53;2.95;;;;;;;16.94;100.00;97886.41;3149320;23;20080;-95
2023/08/28 03:53:26;;;;;;;3.20;2.70;;;;;;;16.99;100.00;97890.56;3164906;23;20022;-95
2023/08/28 03:54:43;;;;;;;3.15;2.60;;;;;;;16.90;100.00;97884.91;3142499;23;20018;-96
2023/08/28 03:56:01;;;;;;;3.58;2.53;;;;;;;16.85;100.00;97887.00;3140942;23;20535;-95
2023/08/28 03:57:23;;;;;;;2.90;2.60;;;;;;;16.91;100.00;97881.31;3150028;23;20050;-95
2023/08/28 03:58:40;;;;;;;3.60;2.63;;;;;;;16.95;100.00;97879.31;3135675;23;20025;-95
2023/08/28 03:59:58;;;;;;;3.20;2.67;;;;;;;16.80;100.00;97875.84;3155345;23;20048;-95
2023/08/28 04:01:16;;;;;;;3.35;2.67;;;;;;;16.74;100.00;97871.78;3153292;23;20014;-95
2023/08/28 04:02:34;;;;;;;2.65;2.42;;;;;;;16.58;100.00;97871.91;3155299;23;20117;-95
2023/08/28 04:03:52;;;;;;;3.22;2.92;;;;;;;16.52;100.00;97873.13;3156081;23;20014;-95
2023/08/28 04:05:09;;;;;;;3.47;2.25;;;;;;;16.61;100.00;97873.50;3133995;23;20058;-95
2023/08/28 04:06:29;;;;;;;3.00;2.70;;;;;;;16.42;100.00;97879.91;3141335;23;20049;-95
2023/08/28 04:07:50;;;;;;;3.17;2.83;;;;;;;16.49;100.00;97881.25;3146193;23;20023;-95
2023/08/28 04:09:06;;;;;;;3.53;2.80;;;;;;;16.66;100.00;97885.47;3140774;23;20010;-93
2023/08/28 04:10:22;;;;;;;3.47;2.80;;;;;;;16.69;100.00;97891.50;3139228;23;20026;-94
2023/08/28 04:11:37;;;;;;;5.32;2.97;;;;;;;16.66;100.00;97887.28;3140155;23;20042;-88
2023/08/28 04:12:53;;;;;;;5.03;2.80;;;;;;;16.78;100.00;97886.53;3153786;23;20029;-87
2023/08/28 04:14:08;;;;;;;4.63;3.10;;;;;;;16.84;100.00;97889.72;3163120;23;20037;-87
2023/08/28 04:15:24;;;;;;;3.55;2.72;;;;;;;16.89;100.00;97888.50;3163803;23;20140;-87
2023/08/28 04:16:39;;;;;;;4.22;2.55;;;;;;;16.89;100.00;97879.69;3163379;23;20022;-87
2023/08/28 04:17:56;;;;;;;3.55;2.60;;;;;;;16.90;100.00;97881.41;3165431;23;20026;-87
2023/08/28 04:19:11;;;;;;;4.80;2.92;;;;;;;16.70;100.00;97886.16;3163586;23;20022;-88
2023/08/28 04:20:27;;;;;;;4.53;2.58;;;;;;;16.75;100.00;97886.69;3163933;23;20529;-87
2023/08/28 04:21:43;;;;;;;3.13;2.58;;;;;;;16.58;100.00;97885.13;3164425;23;20025;-87
2023/08/28 04:22:58;;;;;;;3.53;2.42;;;;;;;16.46;100.00;97881.41;3163510;23;20033;-87
2023/08/28 04:24:14;;;;;;;3.78;3.22;;;;;;;16.31;100.00;97877.06;3163158;23;20418;-87
2023/08/28 04:25:29;;;;;;;4.07;2.80;;;;;;;16.39;100.00;97872.19;3164071;23;20049;-87
2023/08/28 04:26:45;;;;;;;4.45;3.10;;;;;;;16.31;100.00;97875.31;3161511;23;20029;-87
2023/08/28 04:28:00;;;;;;;5.88;3.40;;;;;;;16.54;100.00;97866.91;3164953;23;20026;-87
2023/08/28 04:29:16;;;;;;;3.38;2.90;;;;;;;16.56;100.00;97865.00;3163184;23;20025;-87
2023/08/28 04:30:32;;;;;;;3.60;2.78;;;;;;;16.38;100.00;97865.22;3163451;23;20026;-87
2023/08/28 04:31:47;;;;;;;3.00;2.67;;;;;;;16.38;100.00;97858.13;3163149;23;20465;-87
2023/08/28 04:33:05;;;;;;;3.42;2.92;;;;;;;16.42;100.00;97858.78;3164961;23;20029;-87
2023/08/28 04:34:21;;;;;;;6.07;2.70;;;;;;;16.42;100.00;97861.44;3165170;23;20021;-87
2023/08/28 04:35:36;;;;;;;4.90;3.25;;;;;;;16.34;100.00;97858.38;3163407;23;20405;-89
2023/08/28 04:36:52;;;;;;;3.30;2.85;;;;;;;16.30;100.00;97854.25;3147717;23;20037;-88
2023/08/28 04:38:07;;;;;;;8.20;3.10;;;;;;;16.27;100.00;97860.56;3153234;23;20018;-87
2023/08/28 04:39:23;;;;;;;3.78;2.83;;;;;;;16.34;100.00;97861.91;3163286;23;20390;-87
2023/08/28 04:40:39;;;;;;;5.15;3.28;;;;;;;16.42;100.00;97858.78;3163467;23;20466;-87
2023/08/28 04:41:54;;;;;;;4.68;2.80;;;;;;;16.40;100.00;97854.53;3163952;23;20450;-87
2023/08/28 04:43:10;;;;;;;6.82;3.03;;;;;;;16.45;100.00;97852.47;3164300;23;20029;-87
2023/08/28 04:44:25;;;;;;;4.28;2.80;;;;;;;16.45;100.00;97852.47;3164634;23;20032;-87
2023/08/28 04:45:41;;;;;;;4.22;2.95;;;;;;;16.43;100.00;97855.19;3163346;23;20104;-87
2023/08/28 04:46:58;;;;;;;3.90;3.25;;;;;;;16.58;100.00;97850.78;3163108;23;20022;-87
2023/08/28 04:48:13;;;;;;;4.60;2.97;;;;;;;16.74;100.00;97857.72;3163211;23;20018;-87
2023/08/28 04:49:29;;;;;;;6.07;2.70;;;;;;;16.78;100.00;97854.81;3163678;23;20014;-87
2023/08/28 04:50:45;;;;;;;4.15;2.88;;;;;;;16.52;100.00;97841.44;3164830;23;20405;-87
2023/08/28 04:52:01;;;;;;;5.18;2.83;;;;;;;16.41;100.00;97843.00;3163223;23;20026;-88
2023/08/28 04:53:16;;;;;;;4.32;2.80;;;;;;;16.37;100.00;97835.28;3163893;23;20105;-87
2023/08/28 04:54:33;;;;;;;4.15;3.03;;;;;;;16.45;100.00;97839.25;3164339;23;20022;-87
2023/08/28 04:55:48;;;;;;;5.07;2.90;;;;;;;16.45;100.00;97832.16;3164808;23;20017;-87
2023/08/28 04:57:04;;;;;;;6.50;3.13;;;;;;;16.32;100.00;97828.59;3162959;23;20056;-87
2023/08/28 04:58:20;;;;;;;6.00;2.97;;;;;;;16.54;100.00;97832.56;3163596;23;20033;-87
2023/08/28 04:59:36;;;;;;;4.85;3.47;;;;;;;16.62;100.00;97838.19;3164098;23;20104;-86
2023/08/28 05:00:51;;;;;;;7.32;3.17;;;;;;;16.76;100.00;97830.28;3164842;23;20025;-86
2023/08/28 05:02:07;;;;;;;6.22;3.35;;;;;;;16.68;100.00;97832.53;3163750;23;20025;-86
2023/08/28 05:03:22;;;;;;;4.57;3.10;;;;;;;16.61;100.00;97837.34;3163655;23;20026;-86
2023/08/28 05:04:38;;;;;;;4.50;3.15;;;;;;;16.57;100.00;97841.16;3146795;23;20034;-86
2023/08/28 05:05:54;;;;;;;5.28;3.45;;;;;;;16.71;100.00;97837.63;3153404;23;20017;-86
2023/08/28 05:07:11;;;;;;;4.13;3.33;;;;;;;16.75;100.00;97827.72;3163331;23;20014;-87
2023/08/28 05:08:26;;;;;;;6.00;3.72;;;;;;;16.66;100.00;97832.63;3163409;23;20026;-87
2023/08/28 05:09:42;;;;;;;4.88;3.50;;;;;;;16.80;100.00;97830.91;3163721;23;20032;-86
2023/08/28 05:11:00;;;;;;;4.93;3.60;;;;;;;16.87;100.00;97832.22;3164187;23;20026;-87
2023/08/28 05:12:15;;;;;;;7.45;3.58;;;;;;;16.97;100.00;97827.19;3163117;23;20518;-87
2023/08/28 05:13:31;;;;;;;6.32;3.60;;;;;;;16.80;100.00;97838.84;3148692;23;20026;-87
2023/08/28 05:14:46;;;;;;;7.93;3.47;;;;;;;16.66;100.00;97842.38;3153630;23;20032;-87
2023/08/28 05:16:02;;;;;;;3.75;3.33;;;;;;;16.58;100.00;97848.13;3164032;23;20022;-87
2023/08/28 05:17:17;;;;;;;3.63;2.95;;;;;;;16.63;100.00;97851.31;3164292;23;20040;-87
2023/08/28 05:18:33;;;;;;;5.05;3.30;;;;;;;16.77;100.00;97847.81;3163215;23;20045;-87
2023/08/28 05:19:49;;;;;;;10.65;3.38;;;;;;;16.78;100.00;97846.88;3163023;23;20021;-87
2023/08/28 05:21:04;;;;;;;5.20;3.03;;;;;;;16.74;100.00;97847.16;3147026;23;20073;-87
2023/08/28 05:22:20;;;;;;;9.00;3.00;;;;;;;16.68;100.00;97845.75;3153544;23;20028;-87
2023/08/28 05:23:35;;;;;;;3.83;3.42;;;;;;;16.89;100.00;97846.19;3146987;23;20074;-86
2023/08/28 05:24:54;;;;;;;7.22;3.45;;;;;;;16.82;100.00;97850.16;3153215;23;20353;-86
2023/08/28 05:26:09;;;;;;;6.88;3.35;;;;;;;16.82;100.00;97850.16;3163241;23;20025;-87
2023/08/28 05:27:25;;;;;;;5.15;3.63;;;;;;;16.97;100.00;97851.00;3162127;23;20159;-87
2023/08/28 05:28:40;;;;;;;6.00;3.88;;;;;;;16.94;100.00;97856.47;3164487;23;20100;-87
2023/08/28 05:29:56;;;;;;;4.63;3.42;;;;;;;17.04;100.00;97854.13;3163603;23;20057;-87
2023/08/28 05:31:12;;;;;;;7.07;3.58;;;;;;;17.15;100.00;97854.28;3163394;23;20025;-86
2023/08/28 05:32:27;;;;;;;4.18;3.40;;;;;;;17.10;100.00;97852.88;3162739;23;20022;-86
2023/08/28 05:33:43;;;;;;;4.18;3.30;;;;;;;16.89;100.00;97853.25;3162694;23;20018;-87
2023/08/28 05:34:59;;;;;;;7.13;3.53;;;;;;;16.83;100.00;97851.03;3163260;23;20145;-87
2023/08/28 05:36:14;;;;;;;6.43;3.55;;;;;;;16.88;100.00;97854.22;3146939;23;20788;-87
2023/08/28 05:37:30;;;;;;;7.57;3.33;;;;;;;17.01;100.00;97855.16;3153858;23;20033;-87
2023/08/28 05:38:45;;;;;;;5.47;3.55;;;;;;;17.00;100.00;97856.09;3147939;23;20026;-87
2023/08/28 05:40:01;;;;;;;7.47;4.55;;;;;;;17.02;100.00;97856.03;3139614;23;20145;-87
2023/08/28 05:41:17;;;;;;;5.13;3.80;;;;;;;17.08;100.00;97866.19;3153235;23;20600;-86
2023/08/28 05:42:32;;;;;;;4.65;3.83;;;;;;;17.15;100.00;97861.34;3163101;23;20033;-87
2023/08/28 05:43:47;;;;;;;4.65;4.15;;;;;;;17.13;100.00;97869.41;3163623;23;20634;-88
2023/08/28 05:45:04;;;;;;;6.35;4.25;;;;;;;17.19;100.00;97870.81;3164540;23;20134;-86
2023/08/28 05:46:19;;;;;;;4.60;3.65;;;;;;;17.17;100.00;97877.97;3162873;23;20658;-86
2023/08/28 05:47:36;;;;;;;6.00;3.92;;;;;;;17.11;100.00;97888.97;3162830;23;20020;-87
2023/08/28 05:48:51;;;;;;;4.85;3.83;;;;;;;17.04;100.00;97893.78;3163359;23;20029;-86
2023/08/28 05:50:08;;;;;;;5.32;3.88;;;;;;;17.20;100.00;97905.09;3160552;23;20021;-87
2023/08/28 05:51:23;;;;;;;6.10;3.65;;;;;;;17.24;100.00;97905.75;3163181;23;20383;-87
2023/08/28 05:52:39;;;;;;;4.43;3.65;;;;;;;17.13;100.00;97910.88;3163016;23;20080;-86
2023/08/28 05:53:54;;;;;;;5.43;3.80;;;;;;;17.34;100.00;97916.59;3163368;23;20021;-87
2023/08/28 05:55:10;;;;;;;5.28;3.50;;;;;;;17.42;100.00;97921.38;3163910;23;20029;-87
2023/08/28 05:56:25;;;;;;;7.47;3.58;;;;;;;17.31;100.00;97930.84;3163161;23;20037;-87
2023/08/28 05:57:41;;;;;;;4.75;3.80;;;;;;;17.27;100.00;97923.22;3163144;23;20031;-86
2023/08/28 05:58:56;;;;;;;4.03;3.63;;;;;;;17.23;100.00;97927.84;3163414;23;20044;-86
2023/08/28 06:00:14;;;;;;;5.55;3.83;;;;;;;17.17;100.00;97925.59;3163603;23;20447;-86
2023/08/28 06:01:29;;;;;;;6.75;3.80;;;;;;;17.02;100.00;97925.59;3164403;23;20485;-87